Time;durP1;ratioP1;P1;durP2;ratioP2;P2;SDS_P1;SDS_P2;PMS_P1;PMS_P2;Temp;Humidity;BMP_temperature;BMP_pressure;BME280_temperature;BME280_humidity;BME280_pressure;Samples;Min_cycle;Max_cycle;Signal;HPM_P1;HPM_P2
2022/07/02 00:00:03;;;;;;;3.55;2.10;;;14.70;99.90;;;;;;6173214;23;20343;-91
2022/07/02 00:02:34;;;;;;;4.38;2.53;;;14.60;99.90;;;;;;6199453;23;20016;-92
2022/07/02 00:05:12;;;;;;;5.50;3.08;;;14.60;99.90;;;;;;6198747;23;20024;-93
2022/07/02 00:07:47;;;;;;;3.78;2.55;;;14.60;99.90;;;;;;6198089;23;20016;-92
2022/07/02 00:10:14;;;;;;;3.80;2.60;;;14.60;99.90;;;;;;6204802;22;20090;-92
2022/07/02 00:12:40;;;;;;;2.55;2.35;;;14.60;99.90;;;;;;6203106;22;20012;-92
2022/07/02 00:15:07;;;;;;;5.55;2.60;;;14.50;99.90;;;;;;6202753;22;20011;-92
2022/07/02 00:17:33;;;;;;;5.47;2.75;;;14.60;99.90;;;;;;6227510;22;20442;-92
2022/07/02 00:20:01;;;;;;;3.65;2.65;;;14.50;99.90;;;;;;6201779;22;20098;-91
2022/07/02 00:22:28;;;;;;;3.80;2.92;;;14.50;99.90;;;;;;6236048;22;19999;-91
2022/07/02 00:24:54;;;;;;;3.83;2.25;;;14.40;99.90;;;;;;6238268;22;20241;-94
2022/07/02 00:27:28;;;;;;;5.47;2.80;;;14.50;99.90;;;;;;6205972;22;20384;-92
2022/07/02 00:30:02;;;;;;;5.20;2.67;;;14.40;99.90;;;;;;6230453;22;20049;-92
2022/07/02 00:32:33;;;;;;;5.45;3.15;;;14.40;99.90;;;;;;6228903;22;20041;-93
2022/07/02 00:35:08;;;;;;;4.57;2.65;;;14.40;99.90;;;;;;6227097;22;20019;-92
2022/07/02 00:37:37;;;;;;;3.00;2.63;;;14.40;99.90;;;;;;6227291;22;20380;-91
2022/07/02 00:40:13;;;;;;;3.63;2.58;;;14.40;99.90;;;;;;6203172;22;20091;-93
2022/07/02 00:42:41;;;;;;;5.13;2.80;;;13.90;99.90;;;;;;6204143;22;20012;-92
2022/07/02 00:45:13;;;;;;;4.32;2.90;;;14.20;99.90;;;;;;6205018;22;20019;-94
2022/07/02 00:47:42;;;;;;;4.05;2.80;;;14.30;99.90;;;;;;6204279;22;20023;-92
2022/07/02 00:50:08;;;;;;;6.10;3.17;;;14.20;99.90;;;;;;6230800;22;20315;-94
2022/07/02 00:52:34;;;;;;;3.30;2.67;;;14.10;99.90;;;;;;6230006;22;20046;-94
2022/07/02 00:55:00;;;;;;;5.00;2.78;;;14.10;99.90;;;;;;6206044;22;20008;-94
2022/07/02 00:57:26;;;;;;;6.90;3.35;;;14.10;99.90;;;;;;6205300;22;20080;-93
2022/07/02 00:59:52;;;;;;;4.05;2.92;;;14.00;99.90;;;;;;6229057;22;20094;-93
2022/07/02 01:02:22;;;;;;;4.22;2.95;;;14.00;99.90;;;;;;6180912;22;20047;-92
2022/07/02 01:04:50;;;;;;;5.40;2.75;;;14.00;99.90;;;;;;6229898;22;20073;-93
2022/07/02 01:07:19;;;;;;;3.58;2.63;;;14.00;99.90;;;;;;6187760;22;20070;-93
2022/07/02 01:12:37;;;;;;;4.70;2.90;;;14.00;99.90;;;;;;6226259;23;20065;-93
2022/07/02 01:15:03;;;;;;;5.97;2.70;;;14.00;99.90;;;;;;6173387;23;20059;-94
2022/07/02 01:17:29;;;;;;;5.85;3.17;;;14.00;99.90;;;;;;6149677;23;20008;-93
2022/07/02 01:19:55;;;;;;;4.65;2.95;;;14.00;99.90;;;;;;6149007;23;20327;-94
2022/07/02 01:22:40;;;;;;;6.05;3.10;;;14.00;99.90;;;;;;6148640;23;20013;-95
2022/07/02 01:25:07;;;;;;;6.05;2.85;;;13.90;99.90;;;;;;6198131;23;20016;-94
2022/07/02 01:27:34;;;;;;;5.72;3.25;;;14.00;99.90;;;;;;6198419;23;20016;-93
2022/07/02 01:30:03;;;;;;;4.97;3.47;;;13.90;99.90;;;;;;6148890;23;20019;-94
2022/07/02 01:32:29;;;;;;;7.50;3.58;;;13.90;99.90;;;;;;6198408;23;20012;-92
2022/07/02 01:35:26;;;;;;;5.10;2.78;;;14.00;99.90;;;;;;6172531;23;20067;-92
2022/07/02 01:37:52;;;;;;;3.78;2.65;;;13.90;99.90;;;;;;6218953;23;20016;-91
2022/07/02 01:40:18;;;;;;;4.40;3.08;;;13.90;99.90;;;;;;6145467;23;20019;-92
2022/07/02 01:42:44;;;;;;;6.15;3.03;;;13.90;99.90;;;;;;6146503;23;20091;-92
2022/07/02 01:45:10;;;;;;;4.05;3.00;;;13.90;99.90;;;;;;6147580;23;20039;-92
2022/07/02 01:47:37;;;;;;;4.85;3.00;;;13.90;99.90;;;;;;6171413;23;20450;-92
2022/07/02 01:50:03;;;;;;;4.53;2.88;;;13.90;99.90;;;;;;6147014;23;20031;-92
2022/07/02 01:52:29;;;;;;;6.85;3.28;;;13.80;99.90;;;;;;6145805;23;20012;-92
2022/07/02 01:54:55;;;;;;;4.95;2.80;;;13.80;99.90;;;;;;6169521;23;20074;-91
2022/07/02 01:57:29;;;;;;;8.85;3.95;;;13.80;99.90;;;;;;6145662;23;20012;-93
2022/07/02 01:59:55;;;;;;;7.55;3.17;;;13.80;99.90;;;;;;6195169;23;20099;-93
2022/07/02 02:02:22;;;;;;;6.68;3.28;;;13.80;99.90;;;;;;6170840;23;20016;-92
2022/07/02 02:04:50;;;;;;;5.45;3.47;;;13.70;99.90;;;;;;6145721;23;20016;-93
2022/07/02 02:07:16;;;;;;;4.60;2.95;;;13.00;99.90;;;;;;6147298;23;20074;-94
2022/07/02 02:09:42;;;;;;;3.25;2.78;;;13.60;99.90;;;;;;6173374;23;20016;-94
2022/07/02 02:12:11;;;;;;;5.22;3.35;;;13.70;99.90;;;;;;6173354;23;20008;-93
2022/07/02 02:14:44;;;;;;;7.00;3.58;;;13.60;99.90;;;;;;6198091;23;20512;-93
2022/07/02 02:17:10;;;;;;;4.03;2.58;;;13.60;99.90;;;;;;6203111;23;20019;-95
2022/07/02 02:19:36;;;;;;;4.70;3.10;;;13.60;99.90;;;;;;6205347;23;20016;-92
2022/07/02 02:22:02;;;;;;;4.25;3.25;;;13.60;99.90;;;;;;6198419;23;20135;-93
2022/07/02 02:24:28;;;;;;;4.75;3.25;;;13.60;99.90;;;;;;6195594;23;20023;-92
2022/07/02 02:26:58;;;;;;;5.63;2.80;;;13.60;99.90;;;;;;6170702;23;20044;-93
2022/07/02 02:29:30;;;;;;;3.63;3.05;;;13.50;99.90;;;;;;6195386;23;20016;-93
2022/07/02 02:31:56;;;;;;;6.85;3.15;;;13.60;99.90;;;;;;6195436;23;20356;-92
2022/07/02 02:34:24;;;;;;;4.28;3.38;;;13.50;99.90;;;;;;6195319;23;20008;-93
2022/07/02 02:36:50;;;;;;;5.57;3.30;;;13.60;99.90;;;;;;6196442;23;20016;-92
2022/07/02 02:39:16;;;;;;;9.13;3.65;;;13.60;99.90;;;;;;6195914;23;20016;-92
2022/07/02 02:41:42;;;;;;;5.85;3.25;;;13.50;99.90;;;;;;6195574;23;20406;-92
2022/07/02 02:44:08;;;;;;;6.57;3.55;;;13.50;99.90;;;;;;6195648;23;20338;-92
2022/07/02 02:46:34;;;;;;;5.18;3.17;;;13.50;99.90;;;;;;6170013;23;20412;-92
2022/07/02 02:49:00;;;;;;;4.90;3.25;;;13.40;99.90;;;;;;6172134;23;20059;-92
2022/07/02 02:51:26;;;;;;;7.90;3.50;;;13.50;99.90;;;;;;6196007;23;20019;-93
2022/07/02 02:53:57;;;;;;;5.35;3.45;;;13.50;99.90;;;;;;6171461;23;20012;-92
2022/07/02 02:56:26;;;;;;;7.50;3.33;;;13.50;99.90;;;;;;6195031;23;20434;-93
2022/07/02 02:58:53;;;;;;;5.65;3.45;;;13.50;99.90;;;;;;6169712;23;20015;-93
2022/07/02 03:01:21;;;;;;;5.65;3.10;;;13.50;99.90;;;;;;6169906;23;20100;-92
2022/07/02 03:03:53;;;;;;;6.13;3.50;;;13.50;99.90;;;;;;6195252;23;20019;-92
2022/07/02 03:06:21;;;;;;;5.95;3.78;;;13.50;99.90;;;;;;6171114;23;20031;-92
2022/07/02 03:08:51;;;;;;;5.28;3.50;;;13.40;99.90;;;;;;6176781;23;20024;-92
2022/07/02 03:11:31;;;;;;;4.57;3.15;;;13.50;99.90;;;;;;6170206;23;20438;-92
2022/07/02 03:13:58;;;;;;;6.00;3.55;;;13.40;99.90;;;;;;6194879;23;20023;-91
2022/07/02 03:16:24;;;;;;;4.63;3.08;;;13.50;99.90;;;;;;6169564;23;20016;-91
2022/07/02 03:18:50;;;;;;;7.53;3.65;;;13.40;99.90;;;;;;6195163;23;20012;-91
2022/07/02 03:21:19;;;;;;;5.90;3.20;;;13.50;99.90;;;;;;6168331;23;20023;-92
2022/07/02 03:23:45;;;;;;;6.47;3.05;;;13.50;99.90;;;;;;6170712;23;20012;-91
2022/07/02 03:26:14;;;;;;;5.40;2.95;;;13.50;99.90;;;;;;6170339;23;20100;-92
2022/07/02 03:28:41;;;;;;;3.92;3.00;;;13.60;99.90;;;;;;6170660;23;20373;-92
2022/07/02 03:31:07;;;;;;;4.07;2.70;;;13.60;99.90;;;;;;6170929;23;20354;-92
2022/07/02 03:33:40;;;;;;;6.07;3.45;;;13.60;99.90;;;;;;6170402;23;20013;-92
2022/07/02 03:36:11;;;;;;;6.22;3.47;;;13.50;99.90;;;;;;6146889;23;20066;-91
2022/07/02 03:38:38;;;;;;;5.55;3.40;;;13.60;99.90;;;;;;6170953;23;20016;-92
2022/07/02 03:41:06;;;;;;;5.90;3.50;;;13.70;99.90;;;;;;6169484;23;20444;-92
2022/07/02 03:43:33;;;;;;;5.82;3.33;;;13.80;99.90;;;;;;6169791;23;20016;-92
2022/07/02 03:45:59;;;;;;;6.45;3.60;;;13.70;99.90;;;;;;6169083;23;20013;-92
2022/07/02 03:48:25;;;;;;;9.15;4.00;;;13.80;99.90;;;;;;6170209;23;20099;-92
2022/07/02 03:50:51;;;;;;;5.97;3.88;;;13.70;99.90;;;;;;6170139;23;20047;-92
2022/07/02 03:53:23;;;;;;;4.55;3.22;;;13.70;99.90;;;;;;6171798;23;20019;-92
2022/07/02 03:55:50;;;;;;;6.07;4.07;;;13.10;99.90;;;;;;6195452;23;20051;-92
2022/07/02 03:58:24;;;;;;;;;;;13.70;99.90;;;;;;6173580;23;20055;-92
2022/07/02 04:00:51;;;;;;;6.63;3.65;;;13.80;99.90;;;;;;6193879;23;19915;-92
2022/07/02 04:03:17;;;;;;;7.70;3.42;;;13.70;99.90;;;;;;6169545;23;20413;-92
2022/07/02 04:05:45;;;;;;;9.85;4.47;;;13.80;99.90;;;;;;6168352;23;20099;-93
2022/07/02 04:08:11;;;;;;;8.32;4.20;;;13.70;99.90;;;;;;6169743;22;20022;-92
2022/07/02 04:10:38;;;;;;;7.00;4.35;;;13.70;99.90;;;;;;6173994;23;20021;-91
2022/07/02 04:13:07;;;;;;;8.73;4.00;;;13.80;99.90;;;;;;6177739;23;20023;-92
2022/07/02 04:15:34;;;;;;;6.45;4.32;;;13.80;99.90;;;;;;6194695;23;20070;-91
2022/07/02 04:18:09;;;;;;;8.48;3.92;;;13.80;99.90;;;;;;6142255;23;20012;-92
2022/07/02 04:20:35;;;;;;;5.78;3.83;;;13.80;99.90;;;;;;6171497;23;20091;-92
2022/07/02 04:23:03;;;;;;;7.13;3.92;;;13.90;99.90;;;;;;6171851;23;20047;-91
2022/07/02 04:25:30;;;;;;;5.25;4.00;;;13.90;99.90;;;;;;6172634;23;20012;-92
2022/07/02 04:27:56;;;;;;;8.45;4.72;;;13.90;99.90;;;;;;6171384;23;20334;-93
2022/07/02 04:30:31;;;;;;;7.53;4.30;;;13.90;99.90;;;;;;6175720;23;20008;-94
2022/07/02 04:33:04;;;;;;;8.82;4.40;;;13.90;99.90;;;;;;6177272;23;20016;-94
2022/07/02 04:35:30;;;;;;;7.68;4.47;;;13.90;99.90;;;;;;6177773;23;20066;-94
2022/07/02 04:37:56;;;;;;;6.97;3.88;;;13.90;99.90;;;;;;6151414;23;20008;-94
2022/07/02 04:40:22;;;;;;;7.15;4.53;;;14.00;99.90;;;;;;6177662;23;20106;-94
2022/07/02 04:42:48;;;;;;;5.70;4.00;;;14.00;99.90;;;;;;6152514;23;20023;-93
2022/07/02 04:45:14;;;;;;;6.03;4.53;;;14.10;99.90;;;;;;6176576;23;20450;-95
2022/07/02 04:47:40;;;;;;;8.57;4.93;;;14.10;99.90;;;;;;6152027;23;20012;-93
2022/07/02 04:50:07;;;;;;;6.90;4.18;;;14.00;99.90;;;;;;6150591;23;20009;-93
2022/07/02 04:52:37;;;;;;;7.15;4.85;;;14.10;99.90;;;;;;6204043;23;20017;-93
2022/07/02 04:55:10;;;;;;;9.40;5.25;;;14.10;99.90;;;;;;6174559;23;20398;-92
2022/07/02 04:57:36;;;;;;;9.15;5.45;;;14.70;99.90;;;;;;6169875;23;20008;-93
2022/07/02 05:00:02;;;;;;;8.15;5.70;;;13.70;99.90;;;;;;6172830;23;20442;-92
2022/07/02 05:02:28;;;;;;;8.90;5.55;;;14.30;99.90;;;;;;6197511;23;20084;-91
2022/07/02 05:04:54;;;;;;;9.90;6.10;;;14.40;99.90;;;;;;6150250;23;20020;-95
2022/07/02 05:07:21;;;;;;;10.13;5.38;;;14.30;99.90;;;;;;6148524;23;20078;-93
2022/07/02 05:09:57;;;;;;;6.47;5.57;;;14.30;99.90;;;;;;6188872;23;20012;-93
2022/07/02 05:12:32;;;;;;;8.32;6.20;;;14.30;99.90;;;;;;6198400;23;20514;-91
2022/07/02 05:15:09;;;;;;;10.07;6.78;;;14.30;99.90;;;;;;6196362;23;20019;-93
2022/07/02 05:17:35;;;;;;;11.10;5.90;;;14.30;99.90;;;;;;6197576;23;20019;-91
2022/07/02 05:20:14;;;;;;;7.95;6.45;;;14.40;99.90;;;;;;6194625;23;20012;-92
2022/07/02 05:22:43;;;;;;;9.80;6.55;;;14.40;99.90;;;;;;6173222;23;20012;-93
2022/07/02 05:25:12;;;;;;;7.50;6.03;;;14.50;99.90;;;;;;6170106;23;20521;-93
2022/07/02 05:27:39;;;;;;;8.15;5.85;;;14.40;99.90;;;;;;6196913;23;20027;-92
2022/07/02 05:30:22;;;;;;;7.53;6.70;;;14.40;99.90;;;;;;6172626;23;20074;-92
2022/07/02 05:32:52;;;;;;;7.32;6.28;;;14.50;99.90;;;;;;6199445;23;20019;-93
2022/07/02 05:35:29;;;;;;;;;;;;;;;;;;;;;
2022/07/02 05:38:14;;;;;;;10.57;6.63;;;14.60;99.90;;;;;;6239242;23;20046;-93
2022/07/02 05:40:43;;;;;;;10.48;6.75;;;14.60;99.90;;;;;;6222267;23;20024;-92
2022/07/02 05:43:09;;;;;;;7.95;7.15;;;14.70;99.90;;;;;;6197276;23;20012;-93
2022/07/02 05:45:44;;;;;;;14.63;7.43;;;14.70;99.90;;;;;;6196757;23;20058;-92
2022/07/02 05:48:12;;;;;;;9.02;6.53;;;14.70;99.90;;;;;;6214597;23;20023;-91
2022/07/02 05:50:41;;;;;;;8.18;6.47;;;14.70;99.90;;;;;;6208002;23;20023;-91
2022/07/02 05:53:12;;;;;;;9.75;6.97;;;14.70;99.90;;;;;;6173741;23;20048;-92
2022/07/02 05:55:55;;;;;;;8.82;6.68;;;14.80;99.90;;;;;;6221176;23;20012;-92
2022/07/02 05:58:25;;;;;;;7.68;5.95;;;14.80;99.90;;;;;;6175802;23;20012;-92
2022/07/02 06:00:51;;;;;;;10.05;6.15;;;15.00;99.90;;;;;;6222297;23;20023;-92
2022/07/02 06:03:23;;;;;;;6.70;5.70;;;15.00;99.90;;;;;;6222834;23;20019;-93
2022/07/02 06:08:41;;;;;;;9.23;5.85;;;15.10;99.90;;;;;;6201493;23;20446;-93
2022/07/02 06:11:07;;;;;;;6.43;4.95;;;15.20;99.90;;;;;;6175070;23;20016;-93
2022/07/02 06:13:35;;;;;;;9.65;5.47;;;15.30;99.90;;;;;;6174732;23;20047;-92
2022/07/02 06:16:04;;;;;;;7.38;4.40;;;15.30;99.90;;;;;;6174564;23;20442;-93
2022/07/02 06:18:43;;;;;;;9.02;4.78;;;15.40;99.90;;;;;;6174327;23;20047;-95
2022/07/02 06:21:21;;;;;;;6.05;4.50;;;15.50;99.90;;;;;;6152248;23;20046;-95
2022/07/02 06:23:51;;;;;;;5.90;4.15;;;15.60;99.90;;;;;;6177606;23;20047;-94
2022/07/02 06:26:37;;;;;;;9.30;5.00;;;15.70;99.90;;;;;;6174564;23;20015;-94
2022/07/02 06:29:06;;;;;;;7.72;3.97;;;15.90;99.90;;;;;;6197621;23;20012;-93
2022/07/02 06:35:15;;;;;;;8.07;4.05;;;16.00;99.90;;;;;;6249931;23;20007;-92
2022/07/02 06:37:43;;;;;;;6.47;3.95;;;16.10;99.90;;;;;;6198389;23;20008;-93
2022/07/02 06:40:31;;;;;;;6.85;3.47;;;16.20;99.90;;;;;;6176904;23;20016;-93
2022/07/02 06:43:03;;;;;;;6.07;3.47;;;16.40;99.90;;;;;;6174069;23;20022;-92
2022/07/02 06:45:29;;;;;;;5.85;3.50;;;16.60;99.90;;;;;;6174052;23;20331;-93
2022/07/02 06:51:45;;;;;;;4.38;3.22;;;16.80;99.90;;;;;;6251073;23;20023;-93
2022/07/02 06:54:22;;;;;;;12.07;3.90;;;17.10;99.90;;;;;;6195019;23;20081;-92
2022/07/02 06:57:00;;;;;;;7.68;2.80;;;17.40;99.90;;;;;;6198190;23;20087;-93
2022/07/02 07:03:11;;;;;;;4.18;2.60;;;17.50;99.90;;;;;;6243330;23;20346;-92
2022/07/02 07:05:47;;;;;;;4.10;2.65;;;17.60;99.90;;;;;;6176216;23;20018;-93
2022/07/02 07:08:16;;;;;;;6.45;2.67;;;17.70;99.90;;;;;;6172821;22;20016;-92
2022/07/02 07:10:49;;;;;;;3.58;2.33;;;17.80;99.90;;;;;;6174015;23;20027;-93
2022/07/02 07:13:15;;;;;;;6.15;2.53;;;18.20;99.90;;;;;;6148097;23;20038;-92
2022/07/02 07:15:53;;;;;;;5.55;2.50;;;18.10;99.90;;;;;;6197941;23;20008;-92
2022/07/02 07:18:27;;;;;;;3.03;2.30;;;18.10;99.90;;;;;;6149953;23;20055;-94
2022/07/02 07:20:53;;;;;;;5.93;2.50;;;18.00;99.90;;;;;;6175075;23;20082;-93
2022/07/02 07:23:22;;;;;;;5.03;2.17;;;18.10;99.90;;;;;;6174624;23;20079;-93
2022/07/02 07:25:48;;;;;;;4.25;2.45;;;18.10;99.90;;;;;;6151376;23;20338;-93
2022/07/02 07:28:14;;;;;;;3.55;2.15;;;18.20;99.90;;;;;;6175491;23;20018;-93
2022/07/02 07:31:06;;;;;;;4.35;2.05;;;18.20;99.90;;;;;;6175136;23;20018;-93
2022/07/02 07:34:33;;;;;;;3.40;2.00;;;18.20;99.90;;;;;;6163315;23;20497;-92
2022/07/02 07:37:21;;;;;;;6.50;1.98;;;18.40;99.90;;;;;;6011866;23;20087;-93
2022/07/02 07:40:03;;;;;;;2.88;1.70;;;18.80;99.90;;;;;;6104840;23;20024;-92
2022/07/02 07:42:29;;;;;;;2.80;1.60;;;18.60;99.90;;;;;;6135314;23;20490;-92
2022/07/02 07:44:57;;;;;;;3.00;1.67;;;18.60;99.90;;;;;;6112907;23;20017;-92
2022/07/02 07:47:23;;;;;;;4.78;1.60;;;18.70;99.90;;;;;;6115114;23;20487;-91
2022/07/02 07:49:49;;;;;;;2.40;1.60;;;18.80;99.90;;;;;;6117608;23;20045;-91
2022/07/02 07:52:22;;;;;;;4.13;2.10;;;18.80;99.90;;;;;;6116286;23;20017;-95
2022/07/02 07:55:00;;;;;;;1.90;1.58;;;18.90;99.90;;;;;;6117074;23;20376;-93
2022/07/02 07:57:26;;;;;;;2.83;1.70;;;19.00;99.90;;;;;;6116685;23;20013;-94
2022/07/02 08:00:07;;;;;;;;;;;;;;;;;;;;;
2022/07/02 08:03:03;;;;;;;2.67;1.38;;;18.60;99.90;;;;;;6144898;23;20052;-94
2022/07/02 08:05:29;;;;;;;2.83;1.40;;;18.70;99.90;;;;;;6030526;23;20021;-92
2022/07/02 08:07:55;;;;;;;3.67;1.60;;;18.80;99.90;;;;;;6055291;23;20019;-93
2022/07/02 08:10:21;;;;;;;3.03;1.50;;;18.90;99.90;;;;;;6091521;23;20177;-91
2022/07/02 08:12:50;;;;;;;2.67;1.55;;;18.90;99.90;;;;;;6117097;23;20016;-94
2022/07/02 08:15:53;;;;;;;3.05;1.50;;;18.80;99.90;;;;;;6117658;23;20016;-94
2022/07/02 08:18:32;;;;;;;4.03;1.45;;;18.60;99.90;;;;;;6162040;23;20023;-94
2022/07/02 08:21:04;;;;;;;2.60;1.30;;;18.90;99.90;;;;;;6200557;23;20016;-93
2022/07/02 08:24:03;;;;;;;4.43;1.48;;;19.10;99.90;;;;;;6200531;23;20047;-93
2022/07/02 08:26:32;;;;;;;4.18;1.40;;;19.20;99.90;;;;;;6199031;23;20090;-92
2022/07/02 08:29:03;;;;;;;4.10;1.60;;;19.30;99.90;;;;;;6175555;23;20067;-92
2022/07/02 08:31:44;;;;;;;3.22;1.15;;;19.30;99.90;;;;;;6200101;23;20012;-92
2022/07/02 08:34:14;;;;;;;4.95;1.40;;;19.60;99.90;;;;;;6199987;23;20015;-92
2022/07/02 08:36:44;;;;;;;2.88;1.45;;;19.30;99.90;;;;;;6201451;23;20008;-92
2022/07/02 08:39:11;;;;;;;1.88;1.02;;;19.40;99.90;;;;;;6200100;23;20012;-92
2022/07/02 08:41:46;;;;;;;2.60;0.95;;;19.50;99.90;;;;;;6198128;23;20016;-91
2022/07/02 08:44:18;;;;;;;2.83;1.00;;;19.30;99.90;;;;;;6199267;23;20023;-93
2022/07/02 08:46:46;;;;;;;2.30;1.00;;;19.50;99.90;;;;;;6199488;23;20400;-93
2022/07/02 08:49:23;;;;;;;3.65;1.52;;;19.60;99.90;;;;;;6202622;23;20020;-95
2022/07/02 08:52:04;;;;;;;2.63;1.48;;;19.80;99.90;;;;;;6203032;23;20008;-94
2022/07/02 08:54:35;;;;;;;2.05;0.80;;;19.80;99.90;;;;;;6227428;23;20008;-93
2022/07/02 09:00:19;;;;;;;2.28;1.08;;;19.40;99.90;;;;;;6224859;23;20028;-91
2022/07/02 09:02:51;;;;;;;2.05;1.20;;;19.90;99.90;;;;;;6201960;23;20012;-93
2022/07/02 09:05:22;;;;;;;1.50;1.25;;;19.70;99.90;;;;;;6199430;23;20012;-93
2022/07/02 09:07:48;;;;;;;1.88;0.82;;;20.40;99.90;;;;;;6198164;23;20050;-92
2022/07/02 09:10:20;;;;;;;1.40;0.80;;;20.50;99.90;;;;;;6199423;23;20019;-92
2022/07/02 09:12:50;;;;;;;2.13;1.00;;;20.80;99.90;;;;;;6199035;23;20016;-92
2022/07/02 09:15:22;;;;;;;4.30;0.98;;;21.10;99.90;;;;;;6197759;23;20050;-92
2022/07/02 09:17:52;;;;;;;1.73;0.90;;;21.10;99.90;;;;;;6198397;23;20013;-92
2022/07/02 09:20:19;;;;;;;2.90;1.02;;;21.10;99.90;;;;;;6150863;23;20099;-93
2022/07/02 09:22:55;;;;;;;3.13;0.70;;;21.00;99.90;;;;;;6175261;23;20446;-93
2022/07/02 09:25:34;;;;;;;2.17;0.65;;;21.40;99.90;;;;;;6199378;23;20016;-94
2022/07/02 09:28:07;;;;;;;1.58;0.70;;;21.50;99.90;;;;;;6199849;23;20020;-94
2022/07/02 09:30:36;;;;;;;1.08;0.63;;;21.60;99.90;;;;;;6150454;23;20014;-93
2022/07/02 09:36:17;;;;;;;1.88;0.70;;;21.90;99.90;;;;;;6204368;23;20469;-93
2022/07/02 09:38:58;;;;;;;0.90;0.70;;;21.70;99.90;;;;;;6199174;23;20458;-91
2022/07/02 09:41:45;;;;;;;0.88;0.50;;;21.90;99.90;;;;;;6200035;23;20012;-94
2022/07/02 09:44:12;;;;;;;1.33;0.70;;;21.70;99.90;;;;;;6195851;23;20338;-94
2022/07/02 09:46:43;;;;;;;2.17;0.90;;;22.20;99.90;;;;;;6199834;23;20106;-93
2022/07/02 09:49:18;;;;;;;2.60;0.93;;;22.10;99.90;;;;;;6199310;23;20016;-94
2022/07/02 09:51:48;;;;;;;2.05;0.80;;;22.40;99.90;;;;;;6197870;23;20422;-93
2022/07/02 09:54:32;;;;;;;0.95;0.60;;;23.00;99.90;;;;;;6148850;23;20016;-94
2022/07/02 09:56:58;;;;;;;1.73;0.60;;;23.10;99.90;;;;;;6149426;23;20012;-94
2022/07/02 09:59:38;;;;;;;1.15;0.60;;;23.40;99.90;;;;;;6148536;23;20069;-94
2022/07/02 10:02:25;;;;;;;1.17;0.70;;;23.30;99.90;;;;;;6173724;23;20020;-93
2022/07/02 10:05:06;;;;;;;1.52;0.75;;;23.30;99.90;;;;;;6173682;23;20023;-94
2022/07/02 10:07:32;;;;;;;1.67;0.65;;;23.20;99.90;;;;;;6197933;23;20016;-92
2022/07/02 10:10:55;;;;;;;;;;;;;;;;;;;;;
2022/07/02 10:14:05;;;;;;;2.25;0.70;;;23.10;97.90;;;;;;6241402;23;20031;-92
2022/07/02 10:17:30;;;;;;;1.45;0.80;;;23.30;99.90;;;;;;6213017;23;20019;-94
2022/07/02 10:24:05;;;;;;;;;;;;;;;;;;;;;
2022/07/02 10:26:40;;;;;;;2.70;0.98;;;23.10;84.10;;;;;;6225127;23;20020;-92
2022/07/02 10:29:16;;;;;;;0.93;0.80;;;23.10;95.40;;;;;;6180947;23;20012;-91
2022/07/02 10:31:52;;;;;;;2.65;0.90;;;23.50;96.70;;;;;;6212453;23;20012;-93
2022/07/02 10:34:33;;;;;;;1.83;0.85;;;23.60;97.60;;;;;;6200930;23;20140;-93
2022/07/02 10:37:09;;;;;;;5.55;0.73;;;23.30;79.90;;;;;;6202162;23;20008;-92
2022/07/02 10:39:39;;;;;;;2.78;0.98;;;23.30;99.90;;;;;;6197852;23;20016;-91
2022/07/02 10:42:27;;;;;;;2.83;0.70;;;24.00;99.90;;;;;;6175151;23;20012;-93
2022/07/02 10:45:22;;;;;;;1.50;0.70;;;23.80;83.50;;;;;;6199394;23;20078;-92
2022/07/02 10:47:54;;;;;;;1.08;0.70;;;23.70;85.80;;;;;;6202007;23;20020;-92
2022/07/02 10:50:40;;;;;;;1.30;0.60;;;23.90;76.10;;;;;;6204099;23;20015;-93
2022/07/02 10:53:38;;;;;;;3.40;0.80;;;23.30;35.10;;;;;;6203844;23;20436;-93
2022/07/02 10:56:11;;;;;;;1.90;0.85;;;24.00;59.40;;;;;;6205306;23;20012;-93
2022/07/02 10:58:48;;;;;;;2.15;1.10;;;23.70;12.40;;;;;;6185856;23;20048;-92
2022/07/02 11:01:23;;;;;;;1.95;0.75;;;23.70;39.70;;;;;;6161319;23;20001;-93
2022/07/02 11:04:06;;;;;;;1.17;0.65;;;24.20;70.30;;;;;;6149346;23;20037;-93
2022/07/02 11:06:50;;;;;;;1.77;0.80;;;23.30;21.40;;;;;;6128266;23;20012;-93
2022/07/02 11:09:25;;;;;;;;;;;23.10;18.40;;;;;;6124351;23;20017;-93
2022/07/02 11:12:04;;;;;;;2.50;0.90;;;22.90;46.10;;;;;;6117454;23;19912;-93
2022/07/02 11:14:33;;;;;;;1.67;0.70;;;23.30;67.40;;;;;;6176786;23;20009;-92
2022/07/02 11:17:15;;;;;;;;;;;;;;;;;;;;;
2022/07/02 11:19:56;;;;;;;1.52;0.80;;;23.70;58.80;;;;;;6171104;23;20056;-92
2022/07/02 11:22:25;;;;;;;1.52;0.70;;;24.30;51.10;;;;;;6144511;23;20056;-92
2022/07/02 11:25:08;;;;;;;2.83;0.80;;;24.30;26.00;;;;;;6138407;23;20017;-93
2022/07/02 11:27:34;;;;;;;0.88;0.68;;;24.60;37.60;;;;;;6176753;23;20016;-93
2022/07/02 11:30:01;;;;;;;2.65;0.60;;;25.00;29.90;;;;;;6183138;23;20076;-92
2022/07/02 11:32:41;;;;;;;1.20;0.63;;;25.00;40.70;;;;;;6184626;23;20077;-94
2022/07/02 11:35:37;;;;;;;1.38;0.70;;;24.80;1.00;;;;;;6206546;23;20027;-93
2022/07/02 11:38:10;;;;;;;0.85;0.60;;;24.90;1.00;;;;;;6208658;23;20012;-94
2022/07/02 11:47:53;;;;;;;2.70;0.70;;;24.50;1.00;;;;;;6257851;23;20454;-95
2022/07/02 11:50:35;;;;;;;1.58;0.60;;;24.80;1.00;;;;;;6200516;23;20012;-93
2022/07/02 11:53:02;;;;;;;1.60;0.70;;;24.40;1.00;;;;;;6198177;23;20172;-94
2022/07/02 11:56:18;;;;;;;1.55;0.70;;;25.00;14.60;;;;;;6201147;23;20009;-93
2022/07/02 11:58:52;;;;;;;2.58;0.70;;;24.70;1.00;;;;;;6223178;23;20012;-92
2022/07/02 12:01:39;;;;;;;1.33;0.80;;;24.60;1.00;;;;;;6175287;23;20016;-90
2022/07/02 12:04:10;;;;;;;2.90;0.70;;;24.70;1.00;;;;;;6199334;23;20086;-91
2022/07/02 12:07:03;;;;;;;1.77;0.70;;;24.80;1.00;;;;;;6209824;23;20016;-92
2022/07/02 12:13:22;;;;;;;2.17;0.80;;;25.20;1.40;;;;;;6253207;23;20027;-90
2022/07/02 12:15:48;;;;;;;1.92;0.73;;;24.60;12.90;;;;;;6177954;23;20067;-91
2022/07/02 12:18:18;;;;;;;1.05;0.70;;;25.00;23.30;;;;;;6175615;23;20012;-92
2022/07/02 12:20:50;;;;;;;1.33;0.60;;;24.60;20.90;;;;;;6147359;23;20016;-92
2022/07/02 12:23:16;;;;;;;3.17;0.70;;;24.60;19.00;;;;;;6172418;23;20326;-92
2022/07/02 12:25:44;;;;;;;1.92;0.80;;;24.00;35.20;;;;;;6175775;23;20012;-91
2022/07/02 12:31:10;;;;;;;1.02;0.80;;;24.00;36.40;;;;;;6237632;23;20020;-90
2022/07/02 12:33:40;;;;;;;1.73;0.80;;;24.00;38.30;;;;;;6194930;23;20050;-91
2022/07/02 12:36:07;;;;;;;1.63;0.68;;;24.40;2.80;;;;;;6193190;23;20346;-91
2022/07/02 12:38:45;;;;;;;1.52;0.70;;;24.20;23.00;;;;;;6152900;23;20012;-90
2022/07/02 12:41:11;;;;;;;2.13;0.80;;;24.00;41.20;;;;;;6176774;23;20043;-90
2022/07/02 12:43:37;;;;;;;1.10;0.60;;;23.80;42.50;;;;;;6175282;23;20042;-90
2022/07/02 12:46:15;;;;;;;1.05;0.70;;;23.70;30.70;;;;;;6157578;23;20012;-91
2022/07/02 12:48:45;;;;;;;1.30;0.65;;;23.60;20.20;;;;;;6200845;23;20343;-91
2022/07/02 12:51:14;;;;;;;1.48;0.70;;;23.50;33.80;;;;;;6221699;23;20012;-90
2022/07/02 12:53:41;;;;;;;2.38;0.60;;;23.70;30.30;;;;;;6210326;23;20012;-88
2022/07/02 12:56:09;;;;;;;1.88;0.70;;;23.60;41.40;;;;;;6192512;23;20021;-89
2022/07/02 12:58:43;;;;;;;3.75;0.95;;;23.80;24.80;;;;;;6192156;23;20012;-90
2022/07/02 13:01:09;;;;;;;1.92;0.70;;;24.10;45.10;;;;;;6164117;23;20012;-90
2022/07/02 13:03:39;;;;;;;1.13;0.60;;;24.00;37.20;;;;;;6208803;23;20043;-89
2022/07/02 13:06:06;;;;;;;1.77;0.70;;;24.20;39.50;;;;;;6171725;23;20000;-89
2022/07/02 13:08:33;;;;;;;1.58;0.82;;;24.00;42.50;;;;;;6205716;23;20012;-93
2022/07/02 13:11:00;;;;;;;2.45;0.95;;;23.80;35.20;;;;;;6185247;23;20016;-94
2022/07/02 13:13:26;;;;;;;1.10;0.70;;;24.00;38.40;;;;;;6186561;23;20068;-91
2022/07/02 13:15:53;;;;;;;1.67;0.80;;;24.10;55.50;;;;;;6211187;23;20430;-92
2022/07/02 13:18:19;;;;;;;1.45;0.57;;;24.40;48.20;;;;;;6212830;23;20059;-92
2022/07/02 13:20:47;;;;;;;0.77;0.68;;;24.50;40.70;;;;;;6215715;23;20070;-93
2022/07/02 13:23:22;;;;;;;0.65;0.57;;;23.80;10.20;;;;;;6218036;23;20042;-93
2022/07/02 13:25:54;;;;;;;0.95;0.60;;;23.90;24.40;;;;;;6216899;23;20012;-93
2022/07/02 13:28:39;;;;;;;0.77;0.60;;;24.10;4.20;;;;;;6184418;23;20346;-92
2022/07/02 13:31:05;;;;;;;;;;;24.10;26.10;;;;;;6204667;23;20094;-92
2022/07/02 13:34:16;;;;;;;1.73;0.80;;;24.80;80.40;;;;;;6206550;23;19918;-92
2022/07/02 13:36:51;;;;;;;1.60;0.80;;;25.20;12.00;;;;;;6214825;23;20453;-93
2022/07/02 13:39:23;;;;;;;3.65;0.85;;;24.30;1.00;;;;;;6207138;23;20443;-92
2022/07/02 13:41:52;;;;;;;1.88;0.93;;;24.40;15.70;;;;;;6206472;23;20082;-92
2022/07/02 13:44:20;;;;;;;1.88;0.70;;;24.10;30.40;;;;;;6206777;23;20012;-90
2022/07/02 13:46:46;;;;;;;1.88;0.70;;;24.00;10.70;;;;;;6210480;23;20008;-89
2022/07/02 13:49:12;;;;;;;0.85;0.60;;;24.50;21.30;;;;;;6206890;23;20015;-89
2022/07/02 13:51:39;;;;;;;1.75;0.60;;;24.50;20.70;;;;;;6207111;23;20045;-90
2022/07/02 13:54:05;;;;;;;2.20;0.80;;;24.70;24.80;;;;;;6207053;23;20012;-89
2022/07/02 13:56:31;;;;;;;1.77;0.70;;;24.50;4.40;;;;;;6211901;23;20092;-90
2022/07/02 13:58:57;;;;;;;1.80;0.70;;;24.30;24.30;;;;;;6207193;23;20099;-90